sensor_id;sensor_type;location;lat;lon;timestamp;temperature;humidity
4795;DHT22;2411;47.060;15.064;2023-04-06T00:01:20;-2.60;1.00
4795;DHT22;2411;47.060;15.064;2023-04-06T00:03:48;-2.40;1.00
4795;DHT22;2411;47.060;15.064;2023-04-06T00:06:15;-2.40;1.00
4795;DHT22;2411;47.060;15.064;2023-04-06T00:08:43;-2.40;1.00
4795;DHT22;2411;47.060;15.064;2023-04-06T00:11:11;-2.40;1.00
4795;DHT22;2411;47.060;15.064;2023-04-06T00:13:39;-2.50;1.00
4795;DHT22;2411;47.060;15.064;2023-04-06T00:16:06;-2.60;1.00
4795;DHT22;2411;47.060;15.064;2023-04-06T00:18:33;-2.60;1.00
4795;DHT22;2411;47.060;15.064;2023-04-06T00:21:01;-2.50;1.00
4795;DHT22;2411;47.060;15.064;2023-04-06T00:23:28;-2.60;1.00
4795;DHT22;2411;47.060;15.064;2023-04-06T00:25:56;-2.60;1.00
4795;DHT22;2411;47.060;15.064;2023-04-06T00:28:24;-2.60;1.00
4795;DHT22;2411;47.060;15.064;2023-04-06T00:30:53;-2.70;1.00
4795;DHT22;2411;47.060;15.064;2023-04-06T00:33:23;-2.70;1.00
4795;DHT22;2411;47.060;15.064;2023-04-06T00:35:51;-2.60;1.00
4795;DHT22;2411;47.060;15.064;2023-04-06T00:38:18;-2.70;1.00
4795;DHT22;2411;47.060;15.064;2023-04-06T00:40:45;-2.70;1.00
4795;DHT22;2411;47.060;15.064;2023-04-06T00:43:13;-2.70;1.00
4795;DHT22;2411;47.060;15.064;2023-04-06T00:45:42;-2.70;1.00
4795;DHT22;2411;47.060;15.064;2023-04-06T00:48:09;-2.70;1.00
4795;DHT22;2411;47.060;15.064;2023-04-06T00:50:37;-2.70;1.00
4795;DHT22;2411;47.060;15.064;2023-04-06T00:53:04;-2.60;1.00
4795;DHT22;2411;47.060;15.064;2023-04-06T00:55:32;-2.60;1.00
4795;DHT22;2411;47.060;15.064;2023-04-06T00:57:59;-2.70;1.00
4795;DHT22;2411;47.060;15.064;2023-04-06T01:00:31;-2.70;1.00
4795;DHT22;2411;47.060;15.064;2023-04-06T01:02:59;-2.70;1.00
4795;DHT22;2411;47.060;15.064;2023-04-06T01:05:26;-2.80;1.00
4795;DHT22;2411;47.060;15.064;2023-04-06T01:07:54;-2.80;1.00
4795;DHT22;2411;47.060;15.064;2023-04-06T01:10:25;-2.80;1.00
4795;DHT22;2411;47.060;15.064;2023-04-06T01:12:53;-2.80;1.00
4795;DHT22;2411;47.060;15.064;2023-04-06T01:15:21;-2.90;1.00
4795;DHT22;2411;47.060;15.064;2023-04-06T01:17:48;-2.90;1.00
4795;DHT22;2411;47.060;15.064;2023-04-06T01:20:16;-2.90;1.00
4795;DHT22;2411;47.060;15.064;2023-04-06T01:22:44;-3.00;1.00
4795;DHT22;2411;47.060;15.064;2023-04-06T01:25:11;-3.10;1.00
4795;DHT22;2411;47.060;15.064;2023-04-06T01:27:38;-3.00;1.00
4795;DHT22;2411;47.060;15.064;2023-04-06T01:30:06;-2.90;1.00
4795;DHT22;2411;47.060;15.064;2023-04-06T01:32:34;-2.90;1.00
4795;DHT22;2411;47.060;15.064;2023-04-06T01:35:01;-2.70;1.00
4795;DHT22;2411;47.060;15.064;2023-04-06T01:37:29;-2.80;1.00
4795;DHT22;2411;47.060;15.064;2023-04-06T01:39:59;-2.90;1.00
4795;DHT22;2411;47.060;15.064;2023-04-06T01:42:27;-2.90;1.00
4795;DHT22;2411;47.060;15.064;2023-04-06T01:44:55;-3.10;1.00
4795;DHT22;2411;47.060;15.064;2023-04-06T01:47:22;-3.10;1.00
4795;DHT22;2411;47.060;15.064;2023-04-06T01:49:49;-3.20;1.00
4795;DHT22;2411;47.060;15.064;2023-04-06T01:52:17;-3.10;1.00
4795;DHT22;2411;47.060;15.064;2023-04-06T01:54:44;-3.10;1.00
4795;DHT22;2411;47.060;15.064;2023-04-06T01:57:12;-3.10;1.00
4795;DHT22;2411;47.060;15.064;2023-04-06T01:59:39;-3.10;1.00
4795;DHT22;2411;47.060;15.064;2023-04-06T02:02:06;-3.00;1.00
4795;DHT22;2411;47.060;15.064;2023-04-06T02:04:34;-3.10;1.00
4795;DHT22;2411;47.060;15.064;2023-04-06T02:07:01;-3.10;1.00
4795;DHT22;2411;47.060;15.064;2023-04-06T02:09:28;-3.10;1.00
4795;DHT22;2411;47.060;15.064;2023-04-06T02:11:56;-3.10;1.00
4795;DHT22;2411;47.060;15.064;2023-04-06T02:14:25;-3.10;1.00
4795;DHT22;2411;47.060;15.064;2023-04-06T02:16:53;-3.40;1.00
4795;DHT22;2411;47.060;15.064;2023-04-06T02:19:20;-3.50;1.00
4795;DHT22;2411;47.060;15.064;2023-04-06T02:21:48;-3.40;1.00
4795;DHT22;2411;47.060;15.064;2023-04-06T02:24:15;-3.40;1.00
4795;DHT22;2411;47.060;15.064;2023-04-06T02:26:43;-3.40;1.00
4795;DHT22;2411;47.060;15.064;2023-04-06T02:29:10;-3.40;1.00
4795;DHT22;2411;47.060;15.064;2023-04-06T02:31:37;-3.40;1.00
4795;DHT22;2411;47.060;15.064;2023-04-06T02:34:05;-3.50;1.00
4795;DHT22;2411;47.060;15.064;2023-04-06T02:36:32;-3.50;1.00
4795;DHT22;2411;47.060;15.064;2023-04-06T02:39:00;-3.50;1.00
4795;DHT22;2411;47.060;15.064;2023-04-06T02:41:27;-3.60;1.00
4795;DHT22;2411;47.060;15.064;2023-04-06T02:43:54;-3.60;1.00
4795;DHT22;2411;47.060;15.064;2023-04-06T02:46:22;-3.60;1.00
4795;DHT22;2411;47.060;15.064;2023-04-06T02:48:49;-3.50;1.00
4795;DHT22;2411;47.060;15.064;2023-04-06T02:51:16;-3.60;1.00
4795;DHT22;2411;47.060;15.064;2023-04-06T02:53:44;-3.60;1.00
4795;DHT22;2411;47.060;15.064;2023-04-06T02:56:11;-3.50;1.00
4795;DHT22;2411;47.060;15.064;2023-04-06T02:58:38;-3.50;1.00
4795;DHT22;2411;47.060;15.064;2023-04-06T03:01:06;-3.30;1.00
4795;DHT22;2411;47.060;15.064;2023-04-06T03:03:33;-3.10;1.00
4795;DHT22;2411;47.060;15.064;2023-04-06T03:06:01;-3.00;1.00
4795;DHT22;2411;47.060;15.064;2023-04-06T03:08:28;-3.20;1.00
4795;DHT22;2411;47.060;15.064;2023-04-06T03:10:56;-3.30;1.00
4795;DHT22;2411;47.060;15.064;2023-04-06T03:13:23;-3.40;1.00
4795;DHT22;2411;47.060;15.064;2023-04-06T03:15:50;-3.40;1.00
4795;DHT22;2411;47.060;15.064;2023-04-06T03:18:21;-3.30;1.00
4795;DHT22;2411;47.060;15.064;2023-04-06T03:20:50;-3.30;1.00
4795;DHT22;2411;47.060;15.064;2023-04-06T03:23:18;-3.30;1.00
4795;DHT22;2411;47.060;15.064;2023-04-06T03:25:47;-3.10;1.00
4795;DHT22;2411;47.060;15.064;2023-04-06T03:28:15;-3.10;1.00
4795;DHT22;2411;47.060;15.064;2023-04-06T03:30:43;-3.20;1.00
4795;DHT22;2411;47.060;15.064;2023-04-06T03:33:10;-3.40;1.00
4795;DHT22;2411;47.060;15.064;2023-04-06T03:35:37;-3.50;1.00
4795;DHT22;2411;47.060;15.064;2023-04-06T03:38:06;-3.50;1.00
4795;DHT22;2411;47.060;15.064;2023-04-06T03:40:33;-3.60;1.00
4795;DHT22;2411;47.060;15.064;2023-04-06T03:43:01;-3.60;1.00
4795;DHT22;2411;47.060;15.064;2023-04-06T03:45:28;-3.60;1.00
4795;DHT22;2411;47.060;15.064;2023-04-06T03:47:56;-3.80;1.00
4795;DHT22;2411;47.060;15.064;2023-04-06T03:50:23;-3.70;1.00
4795;DHT22;2411;47.060;15.064;2023-04-06T03:52:51;-3.70;1.00
4795;DHT22;2411;47.060;15.064;2023-04-06T03:55:18;-3.70;1.00
4795;DHT22;2411;47.060;15.064;2023-04-06T03:57:45;-3.80;1.00
4795;DHT22;2411;47.060;15.064;2023-04-06T04:00:13;-3.70;1.00
4795;DHT22;2411;47.060;15.064;2023-04-06T04:02:40;-3.80;1.00
4795;DHT22;2411;47.060;15.064;2023-04-06T04:05:08;-3.90;1.00
4795;DHT22;2411;47.060;15.064;2023-04-06T04:07:36;-4.00;1.00
4795;DHT22;2411;47.060;15.064;2023-04-06T04:10:03;-3.90;1.00
4795;DHT22;2411;47.060;15.064;2023-04-06T04:12:31;-3.90;1.00
4795;DHT22;2411;47.060;15.064;2023-04-06T04:14:58;-4.00;1.00
4795;DHT22;2411;47.060;15.064;2023-04-06T04:17:25;-4.00;1.00
4795;DHT22;2411;47.060;15.064;2023-04-06T04:19:53;-4.10;1.00
4795;DHT22;2411;47.060;15.064;2023-04-06T04:22:20;-4.00;1.00
4795;DHT22;2411;47.060;15.064;2023-04-06T04:24:47;-4.00;1.00
4795;DHT22;2411;47.060;15.064;2023-04-06T04:27:15;-4.00;1.00
4795;DHT22;2411;47.060;15.064;2023-04-06T04:29:42;-4.00;1.00
4795;DHT22;2411;47.060;15.064;2023-04-06T04:32:10;-4.00;1.00
4795;DHT22;2411;47.060;15.064;2023-04-06T04:34:38;-4.00;1.00
4795;DHT22;2411;47.060;15.064;2023-04-06T04:37:07;-3.90;1.00
4795;DHT22;2411;47.060;15.064;2023-04-06T04:39:34;-3.90;1.00
4795;DHT22;2411;47.060;15.064;2023-04-06T04:42:02;-3.70;1.00
4795;DHT22;2411;47.060;15.064;2023-04-06T04:44:29;-3.70;1.00
4795;DHT22;2411;47.060;15.064;2023-04-06T04:46:56;-3.80;1.00
4795;DHT22;2411;47.060;15.064;2023-04-06T04:49:24;-3.80;1.00
4795;DHT22;2411;47.060;15.064;2023-04-06T04:51:51;-3.90;1.00
4795;DHT22;2411;47.060;15.064;2023-04-06T04:54:19;-3.80;1.00
4795;DHT22;2411;47.060;15.064;2023-04-06T04:56:47;-3.90;1.00
4795;DHT22;2411;47.060;15.064;2023-04-06T04:59:14;-3.90;1.00
4795;DHT22;2411;47.060;15.064;2023-04-06T05:01:41;-3.90;1.00
4795;DHT22;2411;47.060;15.064;2023-04-06T05:04:22;-3.70;1.00
4795;DHT22;2411;47.060;15.064;2023-04-06T05:06:50;-3.70;1.00
4795;DHT22;2411;47.060;15.064;2023-04-06T05:09:17;-3.50;1.00
4795;DHT22;2411;47.060;15.064;2023-04-06T05:11:44;-3.50;1.00
4795;DHT22;2411;47.060;15.064;2023-04-06T05:14:12;-3.40;1.00
4795;DHT22;2411;47.060;15.064;2023-04-06T05:16:39;-3.20;1.00
4795;DHT22;2411;47.060;15.064;2023-04-06T05:19:06;-3.20;1.00
4795;DHT22;2411;47.060;15.064;2023-04-06T05:21:34;-3.10;1.00
4795;DHT22;2411;47.060;15.064;2023-04-06T05:24:02;-3.10;1.00
4795;DHT22;2411;47.060;15.064;2023-04-06T05:26:29;-3.00;1.00
4795;DHT22;2411;47.060;15.064;2023-04-06T05:28:57;-3.00;1.00
4795;DHT22;2411;47.060;15.064;2023-04-06T05:31:24;-3.00;1.00
4795;DHT22;2411;47.060;15.064;2023-04-06T05:33:52;-2.90;1.00
4795;DHT22;2411;47.060;15.064;2023-04-06T05:36:19;-2.80;1.00
4795;DHT22;2411;47.060;15.064;2023-04-06T05:38:47;-2.70;1.00
4795;DHT22;2411;47.060;15.064;2023-04-06T05:41:14;-2.60;1.00
4795;DHT22;2411;47.060;15.064;2023-04-06T05:43:42;-2.50;1.00
4795;DHT22;2411;47.060;15.064;2023-04-06T05:46:10;-2.50;1.00
4795;DHT22;2411;47.060;15.064;2023-04-06T05:48:37;-2.40;1.00
4795;DHT22;2411;47.060;15.064;2023-04-06T05:51:04;-2.30;1.00
4795;DHT22;2411;47.060;15.064;2023-04-06T05:53:33;-2.20;1.00
4795;DHT22;2411;47.060;15.064;2023-04-06T05:56:03;-2.10;1.00
4795;DHT22;2411;47.060;15.064;2023-04-06T05:58:31;-1.90;1.00
4795;DHT22;2411;47.060;15.064;2023-04-06T06:01:00;-1.80;1.00
4795;DHT22;2411;47.060;15.064;2023-04-06T06:03:27;-1.70;1.00
4795;DHT22;2411;47.060;15.064;2023-04-06T06:05:59;-1.50;1.00
4795;DHT22;2411;47.060;15.064;2023-04-06T06:08:27;-1.30;1.00
4795;DHT22;2411;47.060;15.064;2023-04-06T06:10:55;-1.20;1.00
4795;DHT22;2411;47.060;15.064;2023-04-06T06:13:23;-1.00;1.00
4795;DHT22;2411;47.060;15.064;2023-04-06T06:15:51;-0.80;1.00
4795;DHT22;2411;47.060;15.064;2023-04-06T06:18:19;-0.70;1.00
4795;DHT22;2411;47.060;15.064;2023-04-06T06:20:46;-0.60;1.00
4795;DHT22;2411;47.060;15.064;2023-04-06T06:23:14;-0.50;1.00
4795;DHT22;2411;47.060;15.064;2023-04-06T06:25:41;-0.40;1.00
4795;DHT22;2411;47.060;15.064;2023-04-06T06:28:09;-0.30;1.00
4795;DHT22;2411;47.060;15.064;2023-04-06T06:30:36;-0.10;1.00
4795;DHT22;2411;47.060;15.064;2023-04-06T06:33:03;0.00;1.00
4795;DHT22;2411;47.060;15.064;2023-04-06T06:35:31;0.00;1.00
4795;DHT22;2411;47.060;15.064;2023-04-06T06:37:58;0.20;1.00
4795;DHT22;2411;47.060;15.064;2023-04-06T06:40:25;0.40;1.00
4795;DHT22;2411;47.060;15.064;2023-04-06T06:42:54;0.40;1.00
4795;DHT22;2411;47.060;15.064;2023-04-06T06:45:21;0.50;1.00
4795;DHT22;2411;47.060;15.064;2023-04-06T06:47:49;0.60;1.00
4795;DHT22;2411;47.060;15.064;2023-04-06T06:50:20;0.70;1.00
4795;DHT22;2411;47.060;15.064;2023-04-06T06:52:47;0.90;1.00
4795;DHT22;2411;47.060;15.064;2023-04-06T06:55:15;1.00;1.00
4795;DHT22;2411;47.060;15.064;2023-04-06T06:57:42;1.30;1.00
4795;DHT22;2411;47.060;15.064;2023-04-06T07:00:10;1.30;1.00
4795;DHT22;2411;47.060;15.064;2023-04-06T07:02:39;1.40;1.00
4795;DHT22;2411;47.060;15.064;2023-04-06T07:05:07;1.60;1.00
4795;DHT22;2411;47.060;15.064;2023-04-06T07:07:54;1.60;1.00
4795;DHT22;2411;47.060;15.064;2023-04-06T07:10:21;1.80;1.00
4795;DHT22;2411;47.060;15.064;2023-04-06T07:12:49;2.00;1.00
4795;DHT22;2411;47.060;15.064;2023-04-06T07:15:16;2.00;1.00
4795;DHT22;2411;47.060;15.064;2023-04-06T07:17:44;2.10;1.00
4795;DHT22;2411;47.060;15.064;2023-04-06T07:20:13;2.20;1.00
4795;DHT22;2411;47.060;15.064;2023-04-06T07:22:42;2.40;1.00
4795;DHT22;2411;47.060;15.064;2023-04-06T07:25:10;2.50;1.00
4795;DHT22;2411;47.060;15.064;2023-04-06T07:27:38;2.60;1.00
4795;DHT22;2411;47.060;15.064;2023-04-06T07:30:05;2.80;1.00
4795;DHT22;2411;47.060;15.064;2023-04-06T07:32:33;2.90;1.00
4795;DHT22;2411;47.060;15.064;2023-04-06T07:35:04;3.00;1.00
4795;DHT22;2411;47.060;15.064;2023-04-06T07:37:31;3.00;1.00
4795;DHT22;2411;47.060;15.064;2023-04-06T07:39:58;3.30;1.00
4795;DHT22;2411;47.060;15.064;2023-04-06T07:42:26;3.30;1.00
4795;DHT22;2411;47.060;15.064;2023-04-06T07:44:53;3.40;1.00
4795;DHT22;2411;47.060;15.064;2023-04-06T07:47:20;3.60;1.00
4795;DHT22;2411;47.060;15.064;2023-04-06T07:49:48;3.80;1.00
4795;DHT22;2411;47.060;15.064;2023-04-06T07:52:15;3.90;1.00
4795;DHT22;2411;47.060;15.064;2023-04-06T07:54:43;4.00;1.00
4795;DHT22;2411;47.060;15.064;2023-04-06T07:57:11;4.10;1.00
4795;DHT22;2411;47.060;15.064;2023-04-06T07:59:38;4.30;1.00
4795;DHT22;2411;47.060;15.064;2023-04-06T08:02:06;4.50;1.00
4795;DHT22;2411;47.060;15.064;2023-04-06T08:04:33;4.60;1.00
4795;DHT22;2411;47.060;15.064;2023-04-06T08:07:01;4.90;1.00
4795;DHT22;2411;47.060;15.064;2023-04-06T08:09:28;5.00;1.00
4795;DHT22;2411;47.060;15.064;2023-04-06T08:11:55;5.10;1.00
4795;DHT22;2411;47.060;15.064;2023-04-06T08:14:22;5.20;1.00
4795;DHT22;2411;47.060;15.064;2023-04-06T08:16:50;5.40;1.00
4795;DHT22;2411;47.060;15.064;2023-04-06T08:19:17;5.50;1.00
4795;DHT22;2411;47.060;15.064;2023-04-06T08:21:46;5.50;1.00
4795;DHT22;2411;47.060;15.064;2023-04-06T08:24:14;5.40;1.00
4795;DHT22;2411;47.060;15.064;2023-04-06T08:26:42;5.50;1.00
4795;DHT22;2411;47.060;15.064;2023-04-06T08:29:09;5.70;1.00
4795;DHT22;2411;47.060;15.064;2023-04-06T08:31:37;5.90;1.00
4795;DHT22;2411;47.060;15.064;2023-04-06T08:34:04;6.00;1.00
4795;DHT22;2411;47.060;15.064;2023-04-06T08:36:39;6.00;1.00
4795;DHT22;2411;47.060;15.064;2023-04-06T08:39:06;5.80;1.00
4795;DHT22;2411;47.060;15.064;2023-04-06T08:41:34;6.00;1.00
4795;DHT22;2411;47.060;15.064;2023-04-06T08:44:02;6.00;1.00
4795;DHT22;2411;47.060;15.064;2023-04-06T08:46:30;6.10;1.00
4795;DHT22;2411;47.060;15.064;2023-04-06T08:48:59;6.40;1.00
4795;DHT22;2411;47.060;15.064;2023-04-06T08:51:29;6.50;1.00
4795;DHT22;2411;47.060;15.064;2023-04-06T08:53:58;6.40;1.00
4795;DHT22;2411;47.060;15.064;2023-04-06T08:56:27;6.40;1.00
4795;DHT22;2411;47.060;15.064;2023-04-06T08:58:55;6.50;1.00
4795;DHT22;2411;47.060;15.064;2023-04-06T09:01:27;6.40;1.00
4795;DHT22;2411;47.060;15.064;2023-04-06T09:03:59;6.40;1.00
4795;DHT22;2411;47.060;15.064;2023-04-06T09:06:28;6.50;1.00
4795;DHT22;2411;47.060;15.064;2023-04-06T09:08:55;6.70;1.00
4795;DHT22;2411;47.060;15.064;2023-04-06T09:11:23;6.90;1.00
4795;DHT22;2411;47.060;15.064;2023-04-06T09:13:53;6.80;1.00
4795;DHT22;2411;47.060;15.064;2023-04-06T09:16:22;6.90;1.00
4795;DHT22;2411;47.060;15.064;2023-04-06T09:18:50;7.00;1.00
4795;DHT22;2411;47.060;15.064;2023-04-06T09:21:18;7.20;1.00
4795;DHT22;2411;47.060;15.064;2023-04-06T09:24:00;7.10;1.00
4795;DHT22;2411;47.060;15.064;2023-04-06T09:26:28;7.10;1.00
4795;DHT22;2411;47.060;15.064;2023-04-06T09:28:58;7.20;1.00
4795;DHT22;2411;47.060;15.064;2023-04-06T09:31:29;7.70;1.00
4795;DHT22;2411;47.060;15.064;2023-04-06T09:33:57;7.50;1.00
4795;DHT22;2411;47.060;15.064;2023-04-06T09:36:32;7.60;1.00
4795;DHT22;2411;47.060;15.064;2023-04-06T09:39:04;7.60;1.00
4795;DHT22;2411;47.060;15.064;2023-04-06T09:41:36;7.70;1.00
4795;DHT22;2411;47.060;15.064;2023-04-06T09:44:08;7.90;1.00
4795;DHT22;2411;47.060;15.064;2023-04-06T09:46:37;7.90;1.00
4795;DHT22;2411;47.060;15.064;2023-04-06T09:49:27;7.90;1.00
4795;DHT22;2411;47.060;15.064;2023-04-06T09:52:03;7.90;1.00
4795;DHT22;2411;47.060;15.064;2023-04-06T09:54:31;8.10;1.00
4795;DHT22;2411;47.060;15.064;2023-04-06T09:57:29;8.00;1.00
4795;DHT22;2411;47.060;15.064;2023-04-06T10:00:05;8.20;1.00
4795;DHT22;2411;47.060;15.064;2023-04-06T10:05:18;8.40;1.00
4795;DHT22;2411;47.060;15.064;2023-04-06T10:07:47;8.40;1.00
4795;DHT22;2411;47.060;15.064;2023-04-06T10:10:23;8.20;1.00
4795;DHT22;2411;47.060;15.064;2023-04-06T10:12:50;8.30;1.00
4795;DHT22;2411;47.060;15.064;2023-04-06T10:15:18;8.60;1.00
4795;DHT22;2411;47.060;15.064;2023-04-06T10:17:48;8.70;1.00
4795;DHT22;2411;47.060;15.064;2023-04-06T10:23:33;8.60;1.00
4795;DHT22;2411;47.060;15.064;2023-04-06T10:26:02;8.50;1.00
4795;DHT22;2411;47.060;15.064;2023-04-06T10:28:36;8.50;1.00
4795;DHT22;2411;47.060;15.064;2023-04-06T10:31:07;8.50;1.00
4795;DHT22;2411;47.060;15.064;2023-04-06T10:33:34;8.80;1.00
4795;DHT22;2411;47.060;15.064;2023-04-06T10:36:21;8.70;1.00
4795;DHT22;2411;47.060;15.064;2023-04-06T10:39:00;8.70;1.00
4795;DHT22;2411;47.060;15.064;2023-04-06T10:41:42;8.90;1.00
4795;DHT22;2411;47.060;15.064;2023-04-06T10:44:19;8.60;1.00
4795;DHT22;2411;47.060;15.064;2023-04-06T10:46:55;8.80;1.00
4795;DHT22;2411;47.060;15.064;2023-04-06T10:49:25;9.10;1.00
4795;DHT22;2411;47.060;15.064;2023-04-06T10:51:54;9.00;1.00
4795;DHT22;2411;47.060;15.064;2023-04-06T10:54:24;9.10;1.00
4795;DHT22;2411;47.060;15.064;2023-04-06T10:56:52;9.30;1.00
4795;DHT22;2411;47.060;15.064;2023-04-06T10:59:20;9.50;1.00
4795;DHT22;2411;47.060;15.064;2023-04-06T11:01:49;9.10;1.00
4795;DHT22;2411;47.060;15.064;2023-04-06T11:04:17;9.00;1.00
4795;DHT22;2411;47.060;15.064;2023-04-06T11:06:49;9.50;1.00
4795;DHT22;2411;47.060;15.064;2023-04-06T11:09:27;9.30;1.00
4795;DHT22;2411;47.060;15.064;2023-04-06T11:11:55;9.60;1.00
4795;DHT22;2411;47.060;15.064;2023-04-06T11:14:24;9.30;1.00
4795;DHT22;2411;47.060;15.064;2023-04-06T11:16:53;9.10;1.00
4795;DHT22;2411;47.060;15.064;2023-04-06T11:19:21;9.10;1.00
4795;DHT22;2411;47.060;15.064;2023-04-06T11:21:49;9.20;1.00
4795;DHT22;2411;47.060;15.064;2023-04-06T11:24:18;9.20;1.00
4795;DHT22;2411;47.060;15.064;2023-04-06T11:26:54;9.50;1.00
4795;DHT22;2411;47.060;15.064;2023-04-06T11:29:29;9.70;1.00
4795;DHT22;2411;47.060;15.064;2023-04-06T11:32:05;9.60;1.00
4795;DHT22;2411;47.060;15.064;2023-04-06T11:34:37;9.60;1.00
4795;DHT22;2411;47.060;15.064;2023-04-06T11:37:11;9.80;1.00
4795;DHT22;2411;47.060;15.064;2023-04-06T11:39:39;9.70;1.00
4795;DHT22;2411;47.060;15.064;2023-04-06T11:42:07;9.70;1.00
4795;DHT22;2411;47.060;15.064;2023-04-06T11:44:42;10.10;1.00
4795;DHT22;2411;47.060;15.064;2023-04-06T11:47:10;9.90;1.00
4795;DHT22;2411;47.060;15.064;2023-04-06T11:49:40;9.90;1.00
4795;DHT22;2411;47.060;15.064;2023-04-06T11:52:23;9.90;1.00
4795;DHT22;2411;47.060;15.064;2023-04-06T11:54:52;9.60;1.00
4795;DHT22;2411;47.060;15.064;2023-04-06T11:57:21;10.10;1.00
4795;DHT22;2411;47.060;15.064;2023-04-06T11:59:52;9.90;1.00
4795;DHT22;2411;47.060;15.064;2023-04-06T12:02:20;9.70;1.00
4795;DHT22;2411;47.060;15.064;2023-04-06T12:04:47;9.90;1.00
4795;DHT22;2411;47.060;15.064;2023-04-06T12:07:15;10.00;1.00
4795;DHT22;2411;47.060;15.064;2023-04-06T12:09:43;9.90;1.00
4795;DHT22;2411;47.060;15.064;2023-04-06T12:12:10;9.80;1.00
4795;DHT22;2411;47.060;15.064;2023-04-06T12:14:37;9.90;1.00
4795;DHT22;2411;47.060;15.064;2023-04-06T12:17:05;9.80;1.00
4795;DHT22;2411;47.060;15.064;2023-04-06T12:19:32;9.70;1.00
4795;DHT22;2411;47.060;15.064;2023-04-06T12:21:59;9.90;1.00
4795;DHT22;2411;47.060;15.064;2023-04-06T12:24:27;9.90;1.00
4795;DHT22;2411;47.060;15.064;2023-04-06T12:26:55;9.70;1.00
4795;DHT22;2411;47.060;15.064;2023-04-06T12:29:36;9.90;1.00
4795;DHT22;2411;47.060;15.064;2023-04-06T12:32:03;10.20;1.00
4795;DHT22;2411;47.060;15.064;2023-04-06T12:34:31;10.00;1.00
4795;DHT22;2411;47.060;15.064;2023-04-06T12:36:59;9.90;1.00
4795;DHT22;2411;47.060;15.064;2023-04-06T12:39:29;10.00;1.00
4795;DHT22;2411;47.060;15.064;2023-04-06T12:41:57;9.90;1.00
4795;DHT22;2411;47.060;15.064;2023-04-06T12:44:24;10.00;1.00
4795;DHT22;2411;47.060;15.064;2023-04-06T12:46:53;10.30;1.00
4795;DHT22;2411;47.060;15.064;2023-04-06T12:49:20;10.30;1.00
4795;DHT22;2411;47.060;15.064;2023-04-06T12:51:49;10.40;1.00
4795;DHT22;2411;47.060;15.064;2023-04-06T12:54:17;10.20;1.00
4795;DHT22;2411;47.060;15.064;2023-04-06T12:56:44;10.20;1.00
4795;DHT22;2411;47.060;15.064;2023-04-06T12:59:12;10.30;1.00
4795;DHT22;2411;47.060;15.064;2023-04-06T13:01:40;10.30;1.00
4795;DHT22;2411;47.060;15.064;2023-04-06T13:04:07;10.40;1.00
4795;DHT22;2411;47.060;15.064;2023-04-06T13:06:35;10.40;1.00
4795;DHT22;2411;47.060;15.064;2023-04-06T13:09:02;10.40;1.00
4795;DHT22;2411;47.060;15.064;2023-04-06T13:11:31;10.60;1.00
4795;DHT22;2411;47.060;15.064;2023-04-06T13:13:58;11.00;1.00
4795;DHT22;2411;47.060;15.064;2023-04-06T13:16:26;10.60;1.00
4795;DHT22;2411;47.060;15.064;2023-04-06T13:18:53;10.60;1.00
4795;DHT22;2411;47.060;15.064;2023-04-06T13:21:20;10.70;1.00
4795;DHT22;2411;47.060;15.064;2023-04-06T13:23:48;10.50;1.00
4795;DHT22;2411;47.060;15.064;2023-04-06T13:26:15;10.50;1.00
4795;DHT22;2411;47.060;15.064;2023-04-06T13:28:43;10.70;1.00
4795;DHT22;2411;47.060;15.064;2023-04-06T13:31:11;10.60;1.00
4795;DHT22;2411;47.060;15.064;2023-04-06T13:33:38;10.50;1.00
4795;DHT22;2411;47.060;15.064;2023-04-06T13:36:07;10.70;1.00
4795;DHT22;2411;47.060;15.064;2023-04-06T13:38:35;10.70;1.00
4795;DHT22;2411;47.060;15.064;2023-04-06T13:41:06;10.70;1.00
4795;DHT22;2411;47.060;15.064;2023-04-06T13:43:33;10.80;1.00
4795;DHT22;2411;47.060;15.064;2023-04-06T13:46:00;10.70;1.00
4795;DHT22;2411;47.060;15.064;2023-04-06T13:48:28;10.70;1.00
4795;DHT22;2411;47.060;15.064;2023-04-06T13:50:57;10.70;1.00
4795;DHT22;2411;47.060;15.064;2023-04-06T13:53:24;10.60;1.00
4795;DHT22;2411;47.060;15.064;2023-04-06T13:55:55;10.70;1.00
4795;DHT22;2411;47.060;15.064;2023-04-06T13:58:23;10.60;1.00
4795;DHT22;2411;47.060;15.064;2023-04-06T14:00:50;10.60;1.00
4795;DHT22;2411;47.060;15.064;2023-04-06T14:03:18;10.70;1.00
4795;DHT22;2411;47.060;15.064;2023-04-06T14:05:46;10.60;1.00
4795;DHT22;2411;47.060;15.064;2023-04-06T14:08:13;10.70;1.00
4795;DHT22;2411;47.060;15.064;2023-04-06T14:10:41;10.80;1.00
4795;DHT22;2411;47.060;15.064;2023-04-06T14:13:09;10.80;1.00
4795;DHT22;2411;47.060;15.064;2023-04-06T14:15:37;10.60;1.00
4795;DHT22;2411;47.060;15.064;2023-04-06T14:18:05;10.60;1.00
4795;DHT22;2411;47.060;15.064;2023-04-06T14:20:33;10.40;1.00
4795;DHT22;2411;47.060;15.064;2023-04-06T14:23:01;10.60;1.00
4795;DHT22;2411;47.060;15.064;2023-04-06T14:25:29;10.80;1.00
4795;DHT22;2411;47.060;15.064;2023-04-06T14:28:01;11.00;1.00
4795;DHT22;2411;47.060;15.064;2023-04-06T14:30:32;11.20;1.00
4795;DHT22;2411;47.060;15.064;2023-04-06T14:32:59;11.10;1.00
4795;DHT22;2411;47.060;15.064;2023-04-06T14:35:27;11.30;1.00
4795;DHT22;2411;47.060;15.064;2023-04-06T14:37:56;11.30;1.00
4795;DHT22;2411;47.060;15.064;2023-04-06T14:40:28;11.30;1.00
4795;DHT22;2411;47.060;15.064;2023-04-06T14:42:55;10.90;1.00
4795;DHT22;2411;47.060;15.064;2023-04-06T14:45:23;11.10;1.00
4795;DHT22;2411;47.060;15.064;2023-04-06T14:47:50;11.10;1.00
4795;DHT22;2411;47.060;15.064;2023-04-06T14:50:18;11.30;1.00
4795;DHT22;2411;47.060;15.064;2023-04-06T14:52:45;11.30;1.00
4795;DHT22;2411;47.060;15.064;2023-04-06T14:55:13;11.40;1.00
4795;DHT22;2411;47.060;15.064;2023-04-06T14:57:41;10.80;1.00
4795;DHT22;2411;47.060;15.064;2023-04-06T15:00:09;10.70;1.00
4795;DHT22;2411;47.060;15.064;2023-04-06T15:02:37;10.80;1.00
4795;DHT22;2411;47.060;15.064;2023-04-06T15:05:05;10.80;1.00
4795;DHT22;2411;47.060;15.064;2023-04-06T15:07:32;10.80;1.00
4795;DHT22;2411;47.060;15.064;2023-04-06T15:10:00;11.00;1.00
4795;DHT22;2411;47.060;15.064;2023-04-06T15:12:27;11.10;1.00
4795;DHT22;2411;47.060;15.064;2023-04-06T15:14:56;11.00;1.00
4795;DHT22;2411;47.060;15.064;2023-04-06T15:17:23;10.80;1.00
4795;DHT22;2411;47.060;15.064;2023-04-06T15:19:53;10.80;1.00
4795;DHT22;2411;47.060;15.064;2023-04-06T15:22:21;11.00;1.00
4795;DHT22;2411;47.060;15.064;2023-04-06T15:24:48;10.90;1.00
4795;DHT22;2411;47.060;15.064;2023-04-06T15:27:16;10.80;1.00
4795;DHT22;2411;47.060;15.064;2023-04-06T15:29:43;10.50;1.00
4795;DHT22;2411;47.060;15.064;2023-04-06T15:32:11;10.50;1.00
4795;DHT22;2411;47.060;15.064;2023-04-06T15:34:39;10.60;1.00
4795;DHT22;2411;47.060;15.064;2023-04-06T15:37:06;10.40;1.00
4795;DHT22;2411;47.060;15.064;2023-04-06T15:39:34;10.40;1.00
4795;DHT22;2411;47.060;15.064;2023-04-06T15:42:03;10.70;1.00
4795;DHT22;2411;47.060;15.064;2023-04-06T15:44:31;10.60;1.00
4795;DHT22;2411;47.060;15.064;2023-04-06T15:47:00;10.50;1.00
4795;DHT22;2411;47.060;15.064;2023-04-06T15:49:27;10.50;1.00
4795;DHT22;2411;47.060;15.064;2023-04-06T15:51:55;10.40;1.00
4795;DHT22;2411;47.060;15.064;2023-04-06T15:54:22;10.20;1.00
4795;DHT22;2411;47.060;15.064;2023-04-06T15:56:49;10.20;1.00
4795;DHT22;2411;47.060;15.064;2023-04-06T15:59:17;10.10;1.00
4795;DHT22;2411;47.060;15.064;2023-04-06T16:01:47;10.10;1.00
4795;DHT22;2411;47.060;15.064;2023-04-06T16:04:14;10.10;1.00
4795;DHT22;2411;47.060;15.064;2023-04-06T16:06:42;10.30;1.00
4795;DHT22;2411;47.060;15.064;2023-04-06T16:09:09;10.70;1.00
4795;DHT22;2411;47.060;15.064;2023-04-06T16:11:37;11.40;1.00
4795;DHT22;2411;47.060;15.064;2023-04-06T16:14:04;11.80;1.00
4795;DHT22;2411;47.060;15.064;2023-04-06T16:16:31;11.90;1.00
4795;DHT22;2411;47.060;15.064;2023-04-06T16:18:59;12.10;1.00
4795;DHT22;2411;47.060;15.064;2023-04-06T16:21:26;12.30;1.00